Time;durP1;ratioP1;P1;durP2;ratioP2;P2;SDS_P1;SDS_P2;PMS_P1;PMS_P2;Temp;Humidity;BMP_temperature;BMP_pressure;BME280_temperature;BME280_humidity;BME280_pressure;Samples;Min_cycle;Max_cycle;Signal;HPM_P1;HPM_P2
2022/01/06 00:01:48;;;;;;;27.33;6.00;;;;;;;;;;5010559;28;20072;-74
2022/01/06 00:04:13;;;;;;;13.93;5.10;;;;;;;;;;4995034;28;20042;-74
2022/01/06 00:06:41;;;;;;;13.33;4.57;;;;;;;;;;4989763;28;20034;-74
2022/01/06 00:09:09;;;;;;;17.98;6.20;;;;;;;;;;4996431;28;20031;-74
2022/01/06 00:11:34;;;;;;;14.82;6.93;;;;;;;;;;4996057;28;20109;-73
2022/01/06 00:14:06;;;;;;;11.83;4.70;;;;;;;;;;4995047;28;20110;-73
2022/01/06 00:24:48;;;;;;;14.00;5.25;;;;;;;;;;4981105;28;20525;-71
2022/01/06 00:27:14;;;;;;;13.60;4.83;;;;;;;;;;4989052;28;20030;-73
2022/01/06 00:29:40;;;;;;;19.37;4.57;;;;;;;;;;4995305;28;20037;-74
2022/01/06 00:32:06;;;;;;;14.55;4.88;;;;;;;;;;4994508;28;20601;-73
2022/01/06 00:34:32;;;;;;;15.07;6.17;;;;;;;;;;4995351;28;20038;-73
2022/01/06 00:36:57;;;;;;;14.50;4.67;;;;;;;;;;4992830;28;20042;-74
2022/01/06 00:39:27;;;;;;;10.60;4.70;;;;;;;;;;4995900;28;20022;-74
2022/01/06 00:41:55;;;;;;;11.15;4.35;;;;;;;;;;4993127;28;20032;-74
2022/01/06 00:44:21;;;;;;;17.73;5.15;;;;;;;;;;5010686;28;20255;-75
2022/01/06 00:46:46;;;;;;;12.27;4.40;;;;;;;;;;4993933;28;20030;-74
2022/01/06 00:49:12;;;;;;;24.20;4.97;;;;;;;;;;4993019;28;20173;-73
2022/01/06 00:51:37;;;;;;;13.97;4.60;;;;;;;;;;4990724;28;20038;-74
2022/01/06 00:54:02;;;;;;;9.53;4.10;;;;;;;;;;4995784;28;20034;-74
2022/01/06 00:56:28;;;;;;;13.13;4.73;;;;;;;;;;4995493;28;20030;-71
2022/01/06 00:58:53;;;;;;;13.67;4.10;;;;;;;;;;4994258;28;20092;-71
2022/01/06 01:01:19;;;;;;;8.80;4.10;;;;;;;;;;4995974;28;20062;-73
2022/01/06 01:03:44;;;;;;;27.77;4.37;;;;;;;;;;4995378;28;20026;-74
2022/01/06 01:06:10;;;;;;;9.27;4.17;;;;;;;;;;5010027;28;20105;-73
2022/01/06 01:08:38;;;;;;;11.33;4.43;;;;;;;;;;5010347;28;20026;-74
2022/01/06 01:11:03;;;;;;;14.32;4.22;;;;;;;;;;4994537;28;20033;-74
2022/01/06 01:13:31;;;;;;;14.73;3.13;;;;;;;;;;4993273;28;20038;-71
2022/01/06 01:16:05;;;;;;;12.18;4.72;;;;;;;;;;5010050;28;20109;-71
2022/01/06 01:18:31;;;;;;;14.52;4.38;;;;;;;;;;5000312;28;20031;-72
2022/01/06 01:20:57;;;;;;;10.47;4.50;;;;;;;;;;4994995;28;20069;-72
2022/01/06 01:23:23;;;;;;;13.70;4.22;;;;;;;;;;4992335;28;20051;-72
2022/01/06 01:25:49;;;;;;;10.68;3.95;;;;;;;;;;4995089;28;20491;-71
2022/01/06 01:28:15;;;;;;;16.15;3.90;;;;;;;;;;4994836;28;20030;-71
2022/01/06 01:30:54;;;;;;;10.48;3.53;;;;;;;;;;4986485;28;20048;-74
2022/01/06 01:33:20;;;;;;;7.53;3.78;;;;;;;;;;4979779;28;20043;-74
2022/01/06 01:35:45;;;;;;;10.70;4.17;;;;;;;;;;4988033;28;20395;-74
2022/01/06 01:38:11;;;;;;;12.10;3.17;;;;;;;;;;5002917;28;20525;-74
2022/01/06 01:40:37;;;;;;;8.90;3.57;;;;;;;;;;4983149;28;20031;-73
2022/01/06 01:43:03;;;;;;;10.20;3.35;;;;;;;;;;4979801;28;20046;-72
2022/01/06 01:45:31;;;;;;;8.60;3.53;;;;;;;;;;4981005;28;20550;-71
2022/01/06 01:47:59;;;;;;;9.05;2.97;;;;;;;;;;4977470;28;20042;-72
2022/01/06 01:50:25;;;;;;;13.13;3.33;;;;;;;;;;4987585;28;20045;-74
2022/01/06 01:52:53;;;;;;;11.70;2.80;;;;;;;;;;4989251;28;20039;-72
2022/01/06 01:55:35;;;;;;;8.95;3.70;;;;;;;;;;4976954;28;20114;-73
2022/01/06 01:58:01;;;;;;;10.18;2.72;;;;;;;;;;4988198;28;20506;-72
2022/01/06 02:00:28;;;;;;;11.03;3.70;;;;;;;;;;5004188;28;20031;-72
2022/01/06 02:02:54;;;;;;;13.65;3.42;;;;;;;;;;5009406;28;20121;-72
2022/01/06 02:05:25;;;;;;;10.05;3.22;;;;;;;;;;5009558;28;20092;-72
2022/01/06 02:07:51;;;;;;;10.30;3.50;;;;;;;;;;4975105;28;20041;-72
2022/01/06 02:10:18;;;;;;;10.57;3.13;;;;;;;;;;4998916;28;20435;-75
2022/01/06 02:12:44;;;;;;;;;;;;;;;;;;4994221;28;20093;-75
2022/01/06 02:15:11;;;;;;;15.30;3.20;;;;;;;;;;4993154;28;19918;-75
2022/01/06 02:17:38;;;;;;;23.20;3.97;;;;;;;;;;4996591;28;20038;-73
2022/01/06 02:20:05;;;;;;;11.25;3.25;;;;;;;;;;5003761;28;21778;-74
2022/01/06 02:22:31;;;;;;;11.55;3.63;;;;;;;;;;4981441;28;20074;-73
2022/01/06 02:24:56;;;;;;;13.43;4.13;;;;;;;;;;4996475;28;20066;-72
2022/01/06 02:27:22;;;;;;;8.27;4.20;;;;;;;;;;4982774;28;20041;-73
2022/01/06 02:29:51;;;;;;;11.97;3.70;;;;;;;;;;4986833;28;20035;-72
2022/01/06 02:32:17;;;;;;;14.32;4.28;;;;;;;;;;4986778;28;20084;-72
2022/01/06 02:34:44;;;;;;;9.65;3.55;;;;;;;;;;4988877;28;20034;-72
2022/01/06 02:37:10;;;;;;;6.72;3.63;;;;;;;;;;5003234;28;20046;-73
2022/01/06 02:39:35;;;;;;;10.15;3.78;;;;;;;;;;4982405;28;20436;-72
2022/01/06 02:42:01;;;;;;;11.53;3.57;;;;;;;;;;4984337;28;20046;-73
2022/01/06 02:44:26;;;;;;;9.93;3.73;;;;;;;;;;4984191;28;20031;-73
2022/01/06 02:46:53;;;;;;;14.30;5.13;;;;;;;;;;4989896;28;20113;-72
2022/01/06 02:49:19;;;;;;;17.95;4.68;;;;;;;;;;4979462;28;20062;-72
2022/01/06 02:51:45;;;;;;;22.58;5.55;;;;;;;;;;4996807;28;20043;-72
2022/01/06 02:54:10;;;;;;;13.87;4.80;;;;;;;;;;4976625;28;20041;-72
2022/01/06 02:56:38;;;;;;;9.07;3.23;;;;;;;;;;4998350;28;20158;-72
2022/01/06 02:59:03;;;;;;;14.98;4.50;;;;;;;;;;4991096;28;20029;-72
2022/01/06 03:01:29;;;;;;;13.87;4.97;;;;;;;;;;4989338;28;20038;-72
2022/01/06 03:03:54;;;;;;;27.83;8.37;;;;;;;;;;4989387;28;20117;-72
2022/01/06 03:06:20;;;;;;;24.40;8.87;;;;;;;;;;4999411;28;20038;-72
2022/01/06 03:08:45;;;;;;;16.53;7.37;;;;;;;;;;4991681;28;20049;-72
2022/01/06 03:11:11;;;;;;;20.20;6.47;;;;;;;;;;4981708;28;20053;-72
2022/01/06 03:13:36;;;;;;;18.93;5.90;;;;;;;;;;4989920;28;20027;-72
2022/01/06 03:16:02;;;;;;;13.67;4.40;;;;;;;;;;4990202;28;20042;-73
2022/01/06 03:18:28;;;;;;;11.32;4.43;;;;;;;;;;4989958;28;20034;-72
2022/01/06 03:20:54;;;;;;;6.80;2.87;;;;;;;;;;5002874;28;20047;-72
2022/01/06 03:23:19;;;;;;;14.70;5.33;;;;;;;;;;4978294;28;20104;-72
2022/01/06 03:25:45;;;;;;;15.60;5.00;;;;;;;;;;4978006;28;20042;-72
2022/01/06 03:28:10;;;;;;;10.27;4.40;;;;;;;;;;4986089;28;20085;-72
2022/01/06 03:30:36;;;;;;;14.63;5.50;;;;;;;;;;4987987;28;20034;-73
2022/01/06 03:33:01;;;;;;;10.33;3.70;;;;;;;;;;5002901;28;20480;-73
2022/01/06 03:35:27;;;;;;;15.17;4.50;;;;;;;;;;5005798;28;20035;-73
2022/01/06 03:37:52;;;;;;;7.87;3.77;;;;;;;;;;5011351;28;20096;-72
2022/01/06 03:40:18;;;;;;;12.87;4.33;;;;;;;;;;4987182;28;20035;-72
2022/01/06 03:42:44;;;;;;;10.23;4.00;;;;;;;;;;5004897;28;20030;-72
2022/01/06 03:45:12;;;;;;;14.67;6.53;;;;;;;;;;5001026;28;20057;-72
2022/01/06 03:47:38;;;;;;;15.05;6.20;;;;;;;;;;5010464;28;20256;-72
2022/01/06 03:50:04;;;;;;;15.80;4.00;;;;;;;;;;4983532;28;20037;-73
2022/01/06 03:52:29;;;;;;;16.73;6.38;;;;;;;;;;4997766;28;20105;-73
2022/01/06 03:54:55;;;;;;;12.47;5.27;;;;;;;;;;4986108;28;20034;-72
2022/01/06 03:57:20;;;;;;;16.40;4.70;;;;;;;;;;4992556;28;20026;-72
2022/01/06 03:59:46;;;;;;;11.03;5.40;;;;;;;;;;4994005;28;20046;-72
2022/01/06 04:02:11;;;;;;;13.73;5.60;;;;;;;;;;4981119;28;20065;-72
2022/01/06 04:04:37;;;;;;;13.87;5.10;;;;;;;;;;4997458;28;20572;-72
2022/01/06 04:07:03;;;;;;;16.92;5.05;;;;;;;;;;4997028;28;20468;-72
2022/01/06 04:09:28;;;;;;;14.43;5.67;;;;;;;;;;4990874;28;20061;-72
2022/01/06 04:11:54;;;;;;;16.20;6.00;;;;;;;;;;4992706;28;20027;-72
2022/01/06 04:14:19;;;;;;;23.77;5.43;;;;;;;;;;4987626;28;20495;-71
2022/01/06 04:16:45;;;;;;;19.10;5.27;;;;;;;;;;4987512;28;20364;-72
2022/01/06 04:19:10;;;;;;;8.17;4.10;;;;;;;;;;5002931;28;20057;-72
2022/01/06 04:21:36;;;;;;;12.83;4.67;;;;;;;;;;4988661;28;20091;-73
2022/01/06 04:24:02;;;;;;;9.70;4.40;;;;;;;;;;4985502;28;20125;-73
2022/01/06 04:26:27;;;;;;;10.30;3.60;;;;;;;;;;4989512;28;20030;-74
2022/01/06 04:28:53;;;;;;;8.57;3.63;;;;;;;;;;4989855;28;20296;-72
2022/01/06 04:31:18;;;;;;;14.63;3.33;;;;;;;;;;4976713;28;20101;-72
2022/01/06 04:33:44;;;;;;;14.20;4.47;;;;;;;;;;4982413;28;20070;-73
2022/01/06 04:36:09;;;;;;;10.87;3.50;;;;;;;;;;4992385;28;20046;-73
2022/01/06 04:38:36;;;;;;;8.37;3.20;;;;;;;;;;4970855;28;20077;-73
2022/01/06 04:41:02;;;;;;;;;;;;;;;;;;5006671;28;20054;-72
2022/01/06 04:43:27;;;;;;;8.40;2.83;;;;;;;;;;4990901;28;19965;-73
2022/01/06 04:45:53;;;;;;;9.37;2.80;;;;;;;;;;4989412;28;20042;-73
2022/01/06 04:48:18;;;;;;;7.70;2.60;;;;;;;;;;4994736;28;20352;-72
2022/01/06 04:50:44;;;;;;;15.43;3.20;;;;;;;;;;4977613;28;20035;-72
2022/01/06 04:53:09;;;;;;;12.13;3.87;;;;;;;;;;4979131;28;20043;-74
2022/01/06 04:55:34;;;;;;;10.47;3.30;;;;;;;;;;4975596;28;20033;-73
2022/01/06 04:58:00;;;;;;;7.53;2.60;;;;;;;;;;4986596;28;20494;-72
2022/01/06 05:00:25;;;;;;;9.03;2.57;;;;;;;;;;4995691;28;20042;-74
2022/01/06 05:02:51;;;;;;;7.90;2.70;;;;;;;;;;4986628;28;20399;-74
2022/01/06 05:05:16;;;;;;;12.30;2.93;;;;;;;;;;4990848;28;20035;-74
2022/01/06 05:07:42;;;;;;;5.87;2.73;;;;;;;;;;4995436;28;20070;-75
2022/01/06 05:10:08;;;;;;;9.38;3.53;;;;;;;;;;4996550;28;20419;-75
2022/01/06 05:12:38;;;;;;;11.10;3.65;;;;;;;;;;4983757;28;20030;-74
2022/01/06 05:15:04;;;;;;;19.63;4.30;;;;;;;;;;4999972;28;20046;-73
2022/01/06 05:17:31;;;;;;;10.27;3.40;;;;;;;;;;4989893;28;20413;-72
2022/01/06 05:19:56;;;;;;;17.25;3.78;;;;;;;;;;4995184;28;20042;-71
2022/01/06 05:22:22;;;;;;;9.27;4.03;;;;;;;;;;4979599;28;20054;-72
2022/01/06 05:24:47;;;;;;;16.30;4.47;;;;;;;;;;4987936;28;20395;-73
2022/01/06 05:27:12;;;;;;;14.67;4.73;;;;;;;;;;4990802;28;20061;-72
2022/01/06 05:29:38;;;;;;;15.60;4.10;;;;;;;;;;4994931;28;20035;-72
2022/01/06 05:32:04;;;;;;;17.20;4.47;;;;;;;;;;4993635;28;20101;-72
2022/01/06 05:34:29;;;;;;;13.50;4.60;;;;;;;;;;4994756;28;20045;-72
2022/01/06 05:36:55;;;;;;;11.17;3.63;;;;;;;;;;4994792;28;20042;-72
2022/01/06 05:39:20;;;;;;;12.13;3.97;;;;;;;;;;4985538;28;20027;-72
2022/01/06 05:41:46;;;;;;;15.60;4.90;;;;;;;;;;4994675;28;20042;-73
2022/01/06 05:44:12;;;;;;;10.30;3.80;;;;;;;;;;5004934;28;20046;-71
2022/01/06 05:46:37;;;;;;;12.33;4.53;;;;;;;;;;4983351;28;20795;-72
2022/01/06 05:49:03;;;;;;;8.23;3.57;;;;;;;;;;4990962;28;20383;-71
2022/01/06 05:51:28;;;;;;;20.07;5.17;;;;;;;;;;4993375;28;20057;-72
2022/01/06 05:53:54;;;;;;;6.17;3.00;;;;;;;;;;4986760;28;20022;-72
2022/01/06 05:56:20;;;;;;;9.80;3.60;;;;;;;;;;5002593;28;20066;-72
2022/01/06 05:58:46;;;;;;;11.18;3.00;;;;;;;;;;5003296;28;20045;-72
2022/01/06 06:01:11;;;;;;;13.83;3.43;;;;;;;;;;5009518;28;20076;-74
2022/01/06 06:03:36;;;;;;;11.00;3.53;;;;;;;;;;4994481;28;20039;-74
2022/01/06 06:06:02;;;;;;;12.27;3.47;;;;;;;;;;4990822;28;20034;-74
2022/01/06 06:08:28;;;;;;;12.93;3.03;;;;;;;;;;4988736;28;20111;-75
2022/01/06 06:10:53;;;;;;;10.17;3.63;;;;;;;;;;4994029;28;20034;-74
2022/01/06 06:13:18;;;;;;;9.10;3.13;;;;;;;;;;4991722;28;20035;-72
2022/01/06 06:15:44;;;;;;;10.20;3.20;;;;;;;;;;4984212;28;20049;-71
2022/01/06 06:18:12;;;;;;;10.00;2.83;;;;;;;;;;5006732;28;20113;-72
2022/01/06 06:20:41;;;;;;;9.25;3.10;;;;;;;;;;4994072;28;20049;-72
2022/01/06 06:23:07;;;;;;;8.02;2.92;;;;;;;;;;4983099;28;20089;-72
2022/01/06 06:25:33;;;;;;;12.70;4.32;;;;;;;;;;4988076;28;20471;-71
2022/01/06 06:27:59;;;;;;;8.25;3.13;;;;;;;;;;5005316;28;20041;-71
2022/01/06 06:30:24;;;;;;;9.93;3.50;;;;;;;;;;4987291;28;20031;-71
2022/01/06 06:32:50;;;;;;;14.63;3.67;;;;;;;;;;4991647;28;20049;-72
2022/01/06 06:35:16;;;;;;;15.00;3.27;;;;;;;;;;4987916;28;20104;-72
2022/01/06 06:37:41;;;;;;;11.17;2.97;;;;;;;;;;4982918;28;20533;-72
2022/01/06 06:40:07;;;;;;;10.97;3.70;;;;;;;;;;4986918;28;20387;-72
2022/01/06 06:42:33;;;;;;;14.95;3.40;;;;;;;;;;4981918;28;20038;-73
2022/01/06 06:44:58;;;;;;;8.20;2.93;;;;;;;;;;4980008;28;20031;-72
2022/01/06 06:47:24;;;;;;;13.43;3.27;;;;;;;;;;5003307;28;20034;-72
2022/01/06 06:49:50;;;;;;;13.87;2.57;;;;;;;;;;4991006;28;20046;-72
2022/01/06 06:52:15;;;;;;;7.67;3.07;;;;;;;;;;4975650;28;20038;-72
2022/01/06 06:54:41;;;;;;;9.50;3.30;;;;;;;;;;4996701;28;20031;-72
2022/01/06 06:57:07;;;;;;;12.43;4.13;;;;;;;;;;4995936;28;20043;-73
2022/01/06 06:59:32;;;;;;;9.30;2.67;;;;;;;;;;4985132;28;20057;-73
2022/01/06 07:01:58;;;;;;;10.27;2.80;;;;;;;;;;4993385;28;20128;-72
2022/01/06 07:04:23;;;;;;;12.03;2.87;;;;;;;;;;4987639;28;20037;-71
2022/01/06 07:06:49;;;;;;;9.00;3.00;;;;;;;;;;4980034;28;20031;-72
2022/01/06 07:09:14;;;;;;;8.37;2.87;;;;;;;;;;5000865;28;20042;-72
2022/01/06 07:11:40;;;;;;;10.30;3.10;;;;;;;;;;5007845;28;20043;-72
2022/01/06 07:14:05;;;;;;;8.73;3.30;;;;;;;;;;4985039;28;20062;-72
2022/01/06 07:16:31;;;;;;;12.43;2.97;;;;;;;;;;4987820;28;20052;-71
2022/01/06 07:18:56;;;;;;;14.20;3.90;;;;;;;;;;4992431;28;20077;-71
2022/01/06 07:21:22;;;;;;;8.87;3.23;;;;;;;;;;4987635;28;20493;-72
2022/01/06 07:23:47;;;;;;;9.87;4.23;;;;;;;;;;4992483;28;20047;-72
2022/01/06 07:26:13;;;;;;;8.83;3.30;;;;;;;;;;4989809;28;20054;-72
2022/01/06 07:28:38;;;;;;;11.93;3.90;;;;;;;;;;4981866;28;20455;-72
2022/01/06 07:31:04;;;;;;;7.83;2.97;;;;;;;;;;4992062;28;20034;-73
2022/01/06 07:33:31;;;;;;;5.33;2.97;;;;;;;;;;4988056;28;20038;-74
2022/01/06 07:35:56;;;;;;;23.05;3.97;;;;;;;;;;4985882;28;20031;-74
2022/01/06 07:38:22;;;;;;;10.63;2.97;;;;;;;;;;5002766;28;20507;-74
2022/01/06 07:40:48;;;;;;;10.80;2.60;;;;;;;;;;4987815;28;20156;-73
2022/01/06 07:43:13;;;;;;;8.97;3.33;;;;;;;;;;4989327;28;20109;-74
2022/01/06 07:45:39;;;;;;;10.90;4.60;;;;;;;;;;4985211;28;20046;-74
2022/01/06 07:48:14;;;;;;;11.47;4.20;;;;;;;;;;4976911;28;20030;-72
2022/01/06 07:50:40;;;;;;;9.93;3.30;;;;;;;;;;4980220;28;20062;-72
2022/01/06 07:53:06;;;;;;;11.23;3.37;;;;;;;;;;5010954;28;20038;-71
2022/01/06 07:55:31;;;;;;;13.50;3.80;;;;;;;;;;4984892;28;20041;-71
2022/01/06 07:57:56;;;;;;;11.23;3.37;;;;;;;;;;4983658;28;20101;-71
2022/01/06 08:00:22;;;;;;;16.70;3.07;;;;;;;;;;4993325;28;20085;-72
2022/01/06 08:02:48;;;;;;;7.23;3.57;;;;;;;;;;4989599;28;20029;-71
2022/01/06 08:05:15;;;;;;;10.50;3.77;;;;;;;;;;4989514;28;20768;-72
2022/01/06 08:07:41;;;;;;;12.88;3.42;;;;;;;;;;4999346;28;20052;-71
2022/01/06 08:10:08;;;;;;;13.57;3.27;;;;;;;;;;5008411;28;20113;-71
2022/01/06 08:12:34;;;;;;;8.73;3.17;;;;;;;;;;4996353;28;20088;-72
2022/01/06 08:15:00;;;;;;;13.45;3.33;;;;;;;;;;4978824;28;20077;-71
2022/01/06 08:17:25;;;;;;;12.30;3.93;;;;;;;;;;4995771;28;20058;-71
2022/01/06 08:19:52;;;;;;;29.20;9.43;;;;;;;;;;4992813;28;20475;-73
2022/01/06 08:22:18;;;;;;;30.23;11.48;;;;;;;;;;4990308;28;20061;-72
2022/01/06 08:24:44;;;;;;;30.88;14.20;;;;;;;;;;4996836;28;20114;-73
2022/01/06 08:27:09;;;;;;;27.40;11.90;;;;;;;;;;4977501;28;20122;-74
2022/01/06 08:29:38;;;;;;;36.93;15.13;;;;;;;;;;4987718;28;20361;-73
2022/01/06 08:32:04;;;;;;;35.03;13.73;;;;;;;;;;4975113;28;20050;-73
2022/01/06 08:34:29;;;;;;;34.00;11.63;;;;;;;;;;5008791;28;20061;-72
2022/01/06 08:36:55;;;;;;;26.47;9.77;;;;;;;;;;4981976;28;20315;-73
2022/01/06 08:39:21;;;;;;;19.63;8.10;;;;;;;;;;4986715;28;20541;-73
2022/01/06 08:41:47;;;;;;;25.17;10.35;;;;;;;;;;4990399;28;20031;-72
2022/01/06 08:44:12;;;;;;;16.08;9.65;;;;;;;;;;5002103;28;20398;-73
2022/01/06 08:46:38;;;;;;;15.63;6.43;;;;;;;;;;4988561;28;20049;-73
2022/01/06 08:49:06;;;;;;;22.50;8.37;;;;;;;;;;4985776;28;20027;-73
2022/01/06 08:51:31;;;;;;;17.40;6.70;;;;;;;;;;5006838;28;20114;-76
2022/01/06 08:53:56;;;;;;;20.90;9.20;;;;;;;;;;4997235;28;20074;-75
2022/01/06 08:56:22;;;;;;;14.00;7.20;;;;;;;;;;4981321;28;20034;-75
2022/01/06 08:58:47;;;;;;;18.33;7.50;;;;;;;;;;4985076;28;20037;-73
2022/01/06 09:01:13;;;;;;;16.27;7.80;;;;;;;;;;4996059;28;20038;-76
2022/01/06 09:03:38;;;;;;;11.37;4.57;;;;;;;;;;4993467;28;20105;-72
2022/01/06 09:06:04;;;;;;;11.03;5.27;;;;;;;;;;4991026;28;20434;-72
2022/01/06 09:08:29;;;;;;;14.03;6.83;;;;;;;;;;4980154;28;20038;-72
2022/01/06 09:10:55;;;;;;;13.80;7.37;;;;;;;;;;4982770;28;20053;-72
2022/01/06 09:13:20;;;;;;;9.23;3.60;;;;;;;;;;5002506;28;20122;-72
2022/01/06 09:15:45;;;;;;;20.10;9.00;;;;;;;;;;4981464;28;20150;-72
2022/01/06 09:18:12;;;;;;;14.00;8.50;;;;;;;;;;4972480;28;20046;-76
2022/01/06 09:20:37;;;;;;;19.42;7.03;;;;;;;;;;4980096;28;20478;-74
2022/01/06 09:23:03;;;;;;;17.47;9.83;;;;;;;;;;4996359;28;20125;-74
2022/01/06 09:25:28;;;;;;;8.80;3.63;;;;;;;;;;4971065;28;20041;-74
2022/01/06 09:27:54;;;;;;;6.23;2.53;;;;;;;;;;4975577;28;20121;-74
2022/01/06 09:30:23;;;;;;;5.32;2.60;;;;;;;;;;4977477;28;20464;-74
2022/01/06 09:32:49;;;;;;;14.10;2.45;;;;;;;;;;5000822;28;20463;-74
2022/01/06 09:35:15;;;;;;;8.13;2.28;;;;;;;;;;4982485;28;20047;-75
2022/01/06 09:37:40;;;;;;;5.60;2.67;;;;;;;;;;4991647;28;20035;-74
2022/01/06 09:40:09;;;;;;;6.77;2.80;;;;;;;;;;4989695;28;20121;-75
2022/01/06 09:42:35;;;;;;;7.80;2.47;;;;;;;;;;4987319;28;20045;-74
2022/01/06 09:45:00;;;;;;;14.65;4.45;;;;;;;;;;4982102;28;20109;-74
2022/01/06 09:47:27;;;;;;;6.10;2.20;;;;;;;;;;4999323;28;20158;-75
2022/01/06 09:49:53;;;;;;;5.88;2.45;;;;;;;;;;4995819;28;20118;-74
2022/01/06 09:52:21;;;;;;;3.80;2.23;;;;;;;;;;4967423;28;20126;-75
2022/01/06 09:54:46;;;;;;;9.43;3.25;;;;;;;;;;5004441;28;20487;-74
2022/01/06 09:57:14;;;;;;;8.60;3.87;;;;;;;;;;4995963;28;20041;-74
2022/01/06 09:59:43;;;;;;;7.18;3.13;;;;;;;;;;4965546;28;20158;-76
2022/01/06 10:02:16;;;;;;;5.65;2.72;;;;;;;;;;4978288;28;20066;-75
2022/01/06 10:04:48;;;;;;;8.38;4.15;;;;;;;;;;4980365;28;20089;-75
2022/01/06 10:07:15;;;;;;;9.40;2.95;;;;;;;;;;4967216;28;20074;-75
2022/01/06 10:09:40;;;;;;;8.52;4.68;;;;;;;;;;4965667;28;20042;-76
2022/01/06 10:12:10;;;;;;;18.10;7.43;;;;;;;;;;4963993;28;20400;-74
2022/01/06 10:14:49;;;;;;;7.95;4.00;;;;;;;;;;4967040;28;20034;-76
2022/01/06 10:17:36;;;;;;;8.20;4.43;;;;;;;;;;4966722;28;20055;-77
2022/01/06 10:20:13;;;;;;;14.55;3.22;;;;;;;;;;4967771;28;20519;-76
2022/01/06 10:22:53;;;;;;;9.15;3.58;;;;;;;;;;4966865;28;20059;-77
2022/01/06 10:25:21;;;;;;;9.73;2.15;;;;;;;;;;4967553;28;20034;-76
2022/01/06 10:27:49;;;;;;;10.98;3.67;;;;;;;;;;4981733;28;20030;-75
2022/01/06 10:30:15;;;;;;;11.82;3.83;;;;;;;;;;4967556;28;20042;-76
2022/01/06 10:32:41;;;;;;;11.07;2.50;;;;;;;;;;4978222;28;20150;-75
2022/01/06 10:35:08;;;;;;;8.52;2.63;;;;;;;;;;4981996;28;20340;-73
2022/01/06 10:37:44;;;;;;;;;;;;;;;;;;4967938;28;20038;-75
2022/01/06 10:40:22;;;;;;;3.85;1.80;;;;;;;;;;4967450;28;19926;-73
2022/01/06 10:42:51;;;;;;;25.00;3.90;;;;;;;;;;4963139;28;20042;-73
2022/01/06 10:45:26;;;;;;;9.05;2.17;;;;;;;;;;4948478;28;20043;-73
2022/01/06 10:47:56;;;;;;;7.38;2.25;;;;;;;;;;4981960;28;20488;-73
2022/01/06 10:50:32;;;;;;;7.45;2.67;;;;;;;;;;4981984;28;20034;-73
2022/01/06 10:53:00;;;;;;;5.78;1.98;;;;;;;;;;4979284;28;20046;-73
2022/01/06 10:55:29;;;;;;;10.52;2.83;;;;;;;;;;4973064;28;20113;-73
2022/01/06 10:58:14;;;;;;;9.35;2.15;;;;;;;;;;4972742;28;20364;-73
2022/01/06 11:00:49;;;;;;;5.13;1.88;;;;;;;;;;4985734;28;20381;-74
2022/01/06 11:03:17;;;;;;;5.00;1.80;;;;;;;;;;5008666;28;20047;-74
2022/01/06 11:05:46;;;;;;;6.93;1.73;;;;;;;;;;5008900;28;20042;-74
2022/01/06 11:08:13;;;;;;;2.80;1.75;;;;;;;;;;4972503;28;20052;-74
2022/01/06 11:10:46;;;;;;;;;;;;;;;;;;4973151;28;20039;-74
2022/01/06 11:13:12;;;;;;;13.73;6.07;;;;;;;;;;4979433;28;20025;-74
2022/01/06 11:15:38;;;;;;;11.55;4.30;;;;;;;;;;4957106;28;20043;-75
2022/01/06 11:18:05;;;;;;;7.33;3.27;;;;;;;;;;4973958;28;20038;-74
2022/01/06 11:20:31;;;;;;;7.40;2.97;;;;;;;;;;4978272;28;20102;-74
2022/01/06 11:22:59;;;;;;;8.82;3.20;;;;;;;;;;4990495;28;20047;-74
2022/01/06 11:25:34;;;;;;;12.90;3.30;;;;;;;;;;4982932;28;20043;-76
2022/01/06 11:28:17;;;;;;;9.05;2.83;;;;;;;;;;4970239;28;20555;-74
2022/01/06 11:30:47;;;;;;;9.30;4.35;;;;;;;;;;4964688;28;20031;-74
2022/01/06 11:33:13;;;;;;;8.57;3.35;;;;;;;;;;5003136;28;20070;-74
2022/01/06 11:35:52;;;;;;;;;;;;;;;;;;5001142;28;20027;-75
2022/01/06 11:38:20;;;;;;;3.92;2.58;;;;;;;;;;4969871;28;19922;-74
2022/01/06 11:40:50;;;;;;;12.15;4.70;;;;;;;;;;4968711;28;20039;-75
2022/01/06 11:43:16;;;;;;;8.70;2.60;;;;;;;;;;4984903;28;20027;-75
2022/01/06 11:45:42;;;;;;;11.30;3.45;;;;;;;;;;4972168;28;20470;-75
2022/01/06 11:48:14;;;;;;;6.30;2.67;;;;;;;;;;4970182;28;20122;-74
2022/01/06 11:50:45;;;;;;;8.38;2.95;;;;;;;;;;4984194;28;20022;-74
2022/01/06 11:53:11;;;;;;;7.05;2.15;;;;;;;;;;4988811;28;20053;-75
2022/01/06 11:55:39;;;;;;;13.80;4.50;;;;;;;;;;4990613;28;20026;-75
2022/01/06 11:58:11;;;;;;;12.10;3.90;;;;;;;;;;5003191;28;20264;-74
2022/01/06 12:00:39;;;;;;;10.27;3.15;;;;;;;;;;4975258;28;20035;-74
2022/01/06 12:03:14;;;;;;;13.77;3.63;;;;;;;;;;4971380;28;20038;-74
2022/01/06 12:05:41;;;;;;;21.58;6.63;;;;;;;;;;4978010;28;20045;-75
2022/01/06 12:08:06;;;;;;;13.10;7.78;;;;;;;;;;4983773;28;20022;-74
2022/01/06 12:10:43;;;;;;;12.37;6.13;;;;;;;;;;4984779;28;20042;-74
2022/01/06 12:13:09;;;;;;;19.15;4.35;;;;;;;;;;4976159;28;20459;-74
2022/01/06 12:15:54;;;;;;;11.30;5.13;;;;;;;;;;4992164;28;20117;-76
2022/01/06 12:18:21;;;;;;;15.23;5.60;;;;;;;;;;4974281;28;20054;-75
2022/01/06 12:20:48;;;;;;;8.07;3.03;;;;;;;;;;4995886;28;20484;-73
2022/01/06 12:23:13;;;;;;;;;;;;;;;;;;4978845;28;20447;-74
2022/01/06 12:25:39;;;;;;;3.92;2.47;;;;;;;;;;4970767;28;19965;-75
2022/01/06 12:28:08;;;;;;;8.97;4.37;;;;;;;;;;4970439;28;20043;-74
2022/01/06 12:30:37;;;;;;;6.63;1.20;;;;;;;;;;4969879;28;20062;-74
2022/01/06 12:33:08;;;;;;;4.43;1.30;;;;;;;;;;4985156;28;20030;-75
2022/01/06 12:35:48;;;;;;;8.10;1.17;;;;;;;;;;4978670;28;20038;-74
2022/01/06 12:38:14;;;;;;;8.23;1.95;;;;;;;;;;4972439;28;20507;-75
2022/01/06 12:40:44;;;;;;;6.57;1.37;;;;;;;;;;4989968;28;20035;-74
2022/01/06 12:43:20;;;;;;;4.30;1.20;;;;;;;;;;4989492;28;20269;-74
2022/01/06 12:45:59;;;;;;;9.50;1.00;;;;;;;;;;4974172;28;20041;-75
2022/01/06 12:48:30;;;;;;;3.28;1.20;;;;;;;;;;5006381;28;20118;-74
2022/01/06 12:50:56;;;;;;;7.57;0.80;;;;;;;;;;5004578;28;20509;-74
2022/01/06 12:53:29;;;;;;;9.77;1.70;;;;;;;;;;4994054;28;20042;-75
2022/01/06 12:55:55;;;;;;;7.53;1.88;;;;;;;;;;4997474;28;20089;-75
2022/01/06 12:58:36;;;;;;;8.17;1.17;;;;;;;;;;4995752;28;20037;-75
2022/01/06 13:01:04;;;;;;;8.70;1.42;;;;;;;;;;4975427;28;20158;-75
2022/01/06 13:03:31;;;;;;;12.45;1.73;;;;;;;;;;4983398;28;20026;-74
2022/01/06 13:05:58;;;;;;;5.60;1.58;;;;;;;;;;4983951;28;20030;-74
2022/01/06 13:08:24;;;;;;;7.57;1.50;;;;;;;;;;4976746;28;20053;-75
2022/01/06 13:11:04;;;;;;;9.80;2.27;;;;;;;;;;4977368;28;20372;-75
2022/01/06 13:13:29;;;;;;;5.70;1.42;;;;;;;;;;4974698;28;20943;-74
2022/01/06 13:15:55;;;;;;;13.17;3.87;;;;;;;;;;4976799;28;20038;-74
2022/01/06 13:18:26;;;;;;;7.77;1.87;;;;;;;;;;4989061;28;20034;-74
2022/01/06 13:21:00;;;;;;;9.30;2.10;;;;;;;;;;4997574;28;20038;-74
2022/01/06 13:23:41;;;;;;;5.57;2.58;;;;;;;;;;4985998;28;20046;-74
2022/01/06 13:26:08;;;;;;;10.48;1.92;;;;;;;;;;4979102;28;20051;-74
2022/01/06 13:28:34;;;;;;;6.05;1.77;;;;;;;;;;4964775;28;20088;-74
2022/01/06 13:31:00;;;;;;;4.53;1.95;;;;;;;;;;4945912;28;20078;-76
2022/01/06 13:33:33;;;;;;;7.30;2.63;;;;;;;;;;4965510;28;20528;-76
2022/01/06 13:36:04;;;;;;;7.28;2.20;;;;;;;;;;4965783;28;20042;-74
2022/01/06 13:38:32;;;;;;;6.63;2.40;;;;;;;;;;4975192;28;20089;-74
2022/01/06 13:41:06;;;;;;;7.28;2.00;;;;;;;;;;4980010;28;20468;-74
2022/01/06 13:43:34;;;;;;;6.68;1.80;;;;;;;;;;4979749;28;20050;-75
2022/01/06 13:46:20;;;;;;;9.77;2.20;;;;;;;;;;4965014;28;20156;-77
2022/01/06 13:48:48;;;;;;;4.30;1.25;;;;;;;;;;4980580;28;20050;-77
2022/01/06 13:51:16;;;;;;;3.45;1.40;;;;;;;;;;4975218;28;20085;-75
2022/01/06 13:53:46;;;;;;;10.95;1.67;;;;;;;;;;4966108;28;20038;-77
2022/01/06 13:56:32;;;;;;;9.00;1.60;;;;;;;;;;4979019;28;20156;-74
2022/01/06 13:59:09;;;;;;;8.35;2.47;;;;;;;;;;4955675;28;20056;-78
2022/01/06 14:01:39;;;;;;;16.67;5.55;;;;;;;;;;4964250;28;20041;-75
2022/01/06 14:04:06;;;;;;;20.98;7.47;;;;;;;;;;4960888;28;20042;-77
2022/01/06 14:06:32;;;;;;;;;;;;;;;;;;4963610;28;20039;-76
2022/01/06 14:08:57;;;;;;;10.50;2.65;;;;;;;;;;4959623;28;19933;-77
2022/01/06 14:11:26;;;;;;;11.45;3.83;;;;;;;;;;4977951;28;20293;-75
2022/01/06 14:13:51;;;;;;;12.18;2.45;;;;;;;;;;4963022;28;20117;-74
2022/01/06 14:16:17;;;;;;;13.37;4.93;;;;;;;;;;4962173;28;20495;-76
2022/01/06 14:18:44;;;;;;;9.63;2.45;;;;;;;;;;4940094;28;20504;-77
2022/01/06 14:21:09;;;;;;;10.05;2.67;;;;;;;;;;4962489;28;20043;-75
2022/01/06 14:23:36;;;;;;;11.07;3.03;;;;;;;;;;4963164;28;20061;-76
2022/01/06 14:26:03;;;;;;;7.00;3.03;;;;;;;;;;4963164;28;20177;-75
2022/01/06 14:28:29;;;;;;;7.55;1.63;;;;;;;;;;4958862;28;20046;-75
2022/01/06 14:31:03;;;;;;;10.90;1.93;;;;;;;;;;4963117;28;20049;-75
2022/01/06 14:33:29;;;;;;;5.40;2.17;;;;;;;;;;4963872;28;20113;-77
2022/01/06 14:35:57;;;;;;;8.60;2.72;;;;;;;;;;4978988;28;20043;-76
2022/01/06 14:38:23;;;;;;;6.78;1.40;;;;;;;;;;4960511;28;20061;-78
2022/01/06 14:40:49;;;;;;;9.27;2.10;;;;;;;;;;4964160;28;20038;-75
2022/01/06 14:43:15;;;;;;;10.53;2.50;;;;;;;;;;4963471;28;20526;-74
2022/01/06 14:45:41;;;;;;;5.25;2.00;;;;;;;;;;4963078;28;20042;-75